sensor_id;sensor_type;location;lat;lon;timestamp;P1;durP1;ratioP1;P2;durP2;ratioP2
18732;SDS011;9495;51.210;2.934;2023-01-01T00:02:02;12.18;;;3.50;;
18732;SDS011;9495;51.210;2.934;2023-01-01T00:04:30;8.80;;;3.53;;
18732;SDS011;9495;51.210;2.934;2023-01-01T00:06:59;14.88;;;3.15;;
18732;SDS011;9495;51.210;2.934;2023-01-01T00:09:28;13.07;;;3.80;;
18732;SDS011;9495;51.210;2.934;2023-01-01T00:12:13;9.32;;;3.95;;
18732;SDS011;9495;51.210;2.934;2023-01-01T00:14:43;12.13;;;3.60;;
18732;SDS011;9495;51.210;2.934;2023-01-01T00:17:11;12.98;;;3.22;;
18732;SDS011;9495;51.210;2.934;2023-01-01T00:19:40;14.30;;;3.47;;
18732;SDS011;9495;51.210;2.934;2023-01-01T00:22:09;17.42;;;4.15;;
18732;SDS011;9495;51.210;2.934;2023-01-01T00:24:57;12.27;;;3.22;;
18732;SDS011;9495;51.210;2.934;2023-01-01T00:27:25;12.32;;;3.85;;
18732;SDS011;9495;51.210;2.934;2023-01-01T00:29:55;16.90;;;3.58;;
18732;SDS011;9495;51.210;2.934;2023-01-01T00:32:23;15.60;;;3.63;;
18732;SDS011;9495;51.210;2.934;2023-01-01T00:34:52;13.15;;;3.42;;
18732;SDS011;9495;51.210;2.934;2023-01-01T00:37:20;13.98;;;3.70;;
18732;SDS011;9495;51.210;2.934;2023-01-01T00:39:49;13.70;;;4.03;;
18732;SDS011;9495;51.210;2.934;2023-01-01T00:42:17;14.57;;;3.78;;
18732;SDS011;9495;51.210;2.934;2023-01-01T00:44:46;12.55;;;3.88;;
18732;SDS011;9495;51.210;2.934;2023-01-01T00:47:15;13.75;;;3.33;;
18732;SDS011;9495;51.210;2.934;2023-01-01T00:49:43;9.50;;;2.70;;
18732;SDS011;9495;51.210;2.934;2023-01-01T00:52:12;14.05;;;3.25;;
18732;SDS011;9495;51.210;2.934;2023-01-01T00:54:41;12.10;;;3.55;;
18732;SDS011;9495;51.210;2.934;2023-01-01T00:57:09;11.85;;;3.00;;
18732;SDS011;9495;51.210;2.934;2023-01-01T00:59:37;11.63;;;3.25;;
18732;SDS011;9495;51.210;2.934;2023-01-01T01:02:06;12.80;;;2.70;;
18732;SDS011;9495;51.210;2.934;2023-01-01T01:04:36;8.57;;;2.47;;
18732;SDS011;9495;51.210;2.934;2023-01-01T01:07:04;12.30;;;3.28;;
18732;SDS011;9495;51.210;2.934;2023-01-01T01:09:33;8.88;;;2.67;;
18732;SDS011;9495;51.210;2.934;2023-01-01T01:12:01;8.27;;;2.53;;
18732;SDS011;9495;51.210;2.934;2023-01-01T01:14:44;13.20;;;3.00;;
18732;SDS011;9495;51.210;2.934;2023-01-01T01:17:12;7.75;;;2.83;;
18732;SDS011;9495;51.210;2.934;2023-01-01T01:19:42;8.82;;;2.47;;
18732;SDS011;9495;51.210;2.934;2023-01-01T01:22:10;8.05;;;2.40;;
18732;SDS011;9495;51.210;2.934;2023-01-01T01:24:39;9.77;;;2.78;;
18732;SDS011;9495;51.210;2.934;2023-01-01T01:27:07;10.07;;;2.88;;
18732;SDS011;9495;51.210;2.934;2023-01-01T01:29:36;12.15;;;3.00;;
18732;SDS011;9495;51.210;2.934;2023-01-01T01:32:04;12.15;;;2.70;;
18732;SDS011;9495;51.210;2.934;2023-01-01T01:34:33;13.05;;;2.83;;
18732;SDS011;9495;51.210;2.934;2023-01-01T01:37:03;9.40;;;2.08;;
18732;SDS011;9495;51.210;2.934;2023-01-01T01:39:32;13.25;;;3.22;;
18732;SDS011;9495;51.210;2.934;2023-01-01T01:42:00;9.15;;;2.42;;
18732;SDS011;9495;51.210;2.934;2023-01-01T01:44:52;11.15;;;2.75;;
18732;SDS011;9495;51.210;2.934;2023-01-01T01:47:26;11.82;;;2.67;;
18732;SDS011;9495;51.210;2.934;2023-01-01T01:49:59;8.35;;;2.85;;
18732;SDS011;9495;51.210;2.934;2023-01-01T01:52:35;8.50;;;2.50;;
18732;SDS011;9495;51.210;2.934;2023-01-01T01:55:07;11.77;;;3.03;;
18732;SDS011;9495;51.210;2.934;2023-01-01T01:57:36;11.52;;;2.88;;
18732;SDS011;9495;51.210;2.934;2023-01-01T02:00:07;9.68;;;2.90;;
18732;SDS011;9495;51.210;2.934;2023-01-01T02:02:38;10.02;;;2.60;;
18732;SDS011;9495;51.210;2.934;2023-01-01T02:05:17;14.65;;;3.20;;
18732;SDS011;9495;51.210;2.934;2023-01-01T02:07:48;9.73;;;2.65;;
18732;SDS011;9495;51.210;2.934;2023-01-01T02:10:17;14.50;;;3.55;;
18732;SDS011;9495;51.210;2.934;2023-01-01T02:12:46;12.20;;;3.05;;
18732;SDS011;9495;51.210;2.934;2023-01-01T02:15:15;11.25;;;3.38;;
18732;SDS011;9495;51.210;2.934;2023-01-01T02:17:46;8.75;;;2.78;;
18732;SDS011;9495;51.210;2.934;2023-01-01T02:20:25;9.55;;;2.67;;
18732;SDS011;9495;51.210;2.934;2023-01-01T02:23:12;7.78;;;3.08;;
18732;SDS011;9495;51.210;2.934;2023-01-01T02:26:05;9.18;;;3.30;;
18732;SDS011;9495;51.210;2.934;2023-01-01T02:28:49;7.63;;;2.53;;
18732;SDS011;9495;51.210;2.934;2023-01-01T02:31:23;10.75;;;2.95;;
18732;SDS011;9495;51.210;2.934;2023-01-01T02:33:55;8.90;;;2.80;;
18732;SDS011;9495;51.210;2.934;2023-01-01T02:36:28;13.30;;;2.88;;
18732;SDS011;9495;51.210;2.934;2023-01-01T02:39:00;12.23;;;3.13;;
18732;SDS011;9495;51.210;2.934;2023-01-01T02:41:32;10.95;;;3.28;;
18732;SDS011;9495;51.210;2.934;2023-01-01T02:44:06;15.18;;;3.95;;
18732;SDS011;9495;51.210;2.934;2023-01-01T02:46:35;16.33;;;4.03;;
18732;SDS011;9495;51.210;2.934;2023-01-01T02:49:03;15.80;;;4.25;;
18732;SDS011;9495;51.210;2.934;2023-01-01T02:51:39;10.20;;;3.30;;
18732;SDS011;9495;51.210;2.934;2023-01-01T02:54:16;9.38;;;2.80;;
18732;SDS011;9495;51.210;2.934;2023-01-01T02:56:53;16.27;;;3.63;;
18732;SDS011;9495;51.210;2.934;2023-01-01T02:59:31;8.77;;;2.70;;
18732;SDS011;9495;51.210;2.934;2023-01-01T03:02:24;8.85;;;1.83;;
18732;SDS011;9495;51.210;2.934;2023-01-01T03:05:03;6.95;;;1.98;;
18732;SDS011;9495;51.210;2.934;2023-01-01T03:07:39;5.93;;;1.80;;
18732;SDS011;9495;51.210;2.934;2023-01-01T03:10:13;10.15;;;2.08;;
18732;SDS011;9495;51.210;2.934;2023-01-01T03:12:45;4.63;;;1.52;;
18732;SDS011;9495;51.210;2.934;2023-01-01T03:15:23;8.43;;;1.85;;
18732;SDS011;9495;51.210;2.934;2023-01-01T03:17:56;8.65;;;2.20;;
18732;SDS011;9495;51.210;2.934;2023-01-01T03:20:30;12.73;;;2.35;;
18732;SDS011;9495;51.210;2.934;2023-01-01T03:23:01;6.82;;;2.42;;
18732;SDS011;9495;51.210;2.934;2023-01-01T03:25:33;8.63;;;2.25;;
18732;SDS011;9495;51.210;2.934;2023-01-01T03:28:08;11.32;;;2.58;;
18732;SDS011;9495;51.210;2.934;2023-01-01T03:30:40;12.60;;;2.50;;
18732;SDS011;9495;51.210;2.934;2023-01-01T03:33:13;11.88;;;2.38;;
18732;SDS011;9495;51.210;2.934;2023-01-01T03:35:45;10.15;;;2.42;;
18732;SDS011;9495;51.210;2.934;2023-01-01T03:38:17;9.60;;;2.17;;
18732;SDS011;9495;51.210;2.934;2023-01-01T03:40:49;11.15;;;2.20;;
18732;SDS011;9495;51.210;2.934;2023-01-01T03:43:22;6.70;;;2.08;;
18732;SDS011;9495;51.210;2.934;2023-01-01T03:45:59;18.13;;;2.58;;
18732;SDS011;9495;51.210;2.934;2023-01-01T03:48:31;11.20;;;2.55;;
18732;SDS011;9495;51.210;2.934;2023-01-01T03:51:30;13.95;;;2.78;;
18732;SDS011;9495;51.210;2.934;2023-01-01T03:54:12;11.05;;;2.35;;
18732;SDS011;9495;51.210;2.934;2023-01-01T03:56:51;7.85;;;2.03;;
18732;SDS011;9495;51.210;2.934;2023-01-01T03:59:26;11.85;;;2.63;;
18732;SDS011;9495;51.210;2.934;2023-01-01T04:02:02;12.50;;;3.05;;
18732;SDS011;9495;51.210;2.934;2023-01-01T04:04:35;13.75;;;2.97;;
18732;SDS011;9495;51.210;2.934;2023-01-01T04:07:04;14.48;;;3.17;;
18732;SDS011;9495;51.210;2.934;2023-01-01T04:09:41;10.00;;;2.72;;
18732;SDS011;9495;51.210;2.934;2023-01-01T04:12:14;15.70;;;2.72;;
18732;SDS011;9495;51.210;2.934;2023-01-01T04:14:43;10.63;;;2.40;;
18732;SDS011;9495;51.210;2.934;2023-01-01T04:17:13;15.10;;;2.92;;
18732;SDS011;9495;51.210;2.934;2023-01-01T04:19:41;11.57;;;2.50;;
18732;SDS011;9495;51.210;2.934;2023-01-01T04:22:17;9.85;;;2.60;;
18732;SDS011;9495;51.210;2.934;2023-01-01T04:24:48;9.93;;;2.65;;
18732;SDS011;9495;51.210;2.934;2023-01-01T04:27:17;8.05;;;1.95;;
18732;SDS011;9495;51.210;2.934;2023-01-01T04:29:46;11.18;;;2.50;;
18732;SDS011;9495;51.210;2.934;2023-01-01T04:32:16;11.70;;;2.53;;
18732;SDS011;9495;51.210;2.934;2023-01-01T04:34:44;9.68;;;2.00;;
18732;SDS011;9495;51.210;2.934;2023-01-01T04:37:13;13.82;;;2.58;;
18732;SDS011;9495;51.210;2.934;2023-01-01T04:39:41;11.98;;;2.10;;
18732;SDS011;9495;51.210;2.934;2023-01-01T04:42:10;11.75;;;2.25;;
18732;SDS011;9495;51.210;2.934;2023-01-01T04:44:38;9.70;;;2.00;;
18732;SDS011;9495;51.210;2.934;2023-01-01T04:47:07;11.18;;;2.30;;
18732;SDS011;9495;51.210;2.934;2023-01-01T04:49:37;13.52;;;2.70;;
18732;SDS011;9495;51.210;2.934;2023-01-01T04:52:05;9.13;;;2.17;;
18732;SDS011;9495;51.210;2.934;2023-01-01T04:54:34;10.95;;;2.58;;
18732;SDS011;9495;51.210;2.934;2023-01-01T04:57:02;16.83;;;2.60;;
18732;SDS011;9495;51.210;2.934;2023-01-01T04:59:30;16.70;;;2.95;;
18732;SDS011;9495;51.210;2.934;2023-01-01T05:01:59;11.52;;;2.60;;
18732;SDS011;9495;51.210;2.934;2023-01-01T05:04:28;11.15;;;2.15;;
18732;SDS011;9495;51.210;2.934;2023-01-01T05:06:58;16.73;;;2.35;;
18732;SDS011;9495;51.210;2.934;2023-01-01T05:09:26;12.00;;;2.10;;
18732;SDS011;9495;51.210;2.934;2023-01-01T05:11:54;10.02;;;2.00;;
18732;SDS011;9495;51.210;2.934;2023-01-01T05:14:23;13.25;;;2.17;;
18732;SDS011;9495;51.210;2.934;2023-01-01T05:16:51;10.65;;;2.22;;
18732;SDS011;9495;51.210;2.934;2023-01-01T05:19:19;14.90;;;2.55;;
18732;SDS011;9495;51.210;2.934;2023-01-01T05:21:48;10.32;;;1.60;;
18732;SDS011;9495;51.210;2.934;2023-01-01T05:24:18;13.20;;;1.98;;
18732;SDS011;9495;51.210;2.934;2023-01-01T05:26:47;6.82;;;1.30;;
18732;SDS011;9495;51.210;2.934;2023-01-01T05:29:15;14.13;;;2.42;;
18732;SDS011;9495;51.210;2.934;2023-01-01T05:31:45;6.43;;;1.45;;
18732;SDS011;9495;51.210;2.934;2023-01-01T05:34:14;12.45;;;2.38;;
18732;SDS011;9495;51.210;2.934;2023-01-01T05:36:42;6.75;;;1.67;;
18732;SDS011;9495;51.210;2.934;2023-01-01T05:39:11;8.93;;;2.00;;
18732;SDS011;9495;51.210;2.934;2023-01-01T05:41:41;12.27;;;1.83;;
18732;SDS011;9495;51.210;2.934;2023-01-01T05:44:10;7.10;;;1.90;;
18732;SDS011;9495;51.210;2.934;2023-01-01T05:46:38;9.43;;;2.00;;
18732;SDS011;9495;51.210;2.934;2023-01-01T05:49:08;9.10;;;1.60;;
18732;SDS011;9495;51.210;2.934;2023-01-01T05:51:38;8.63;;;1.77;;
18732;SDS011;9495;51.210;2.934;2023-01-01T05:54:05;12.07;;;2.17;;
18732;SDS011;9495;51.210;2.934;2023-01-01T05:56:33;12.27;;;2.58;;
18732;SDS011;9495;51.210;2.934;2023-01-01T05:59:03;12.90;;;2.08;;
18732;SDS011;9495;51.210;2.934;2023-01-01T06:01:31;16.75;;;3.00;;
18732;SDS011;9495;51.210;2.934;2023-01-01T06:04:07;9.68;;;2.20;;
18732;SDS011;9495;51.210;2.934;2023-01-01T06:06:35;14.20;;;2.45;;
18732;SDS011;9495;51.210;2.934;2023-01-01T06:09:04;14.75;;;2.72;;
18732;SDS011;9495;51.210;2.934;2023-01-01T06:11:32;15.98;;;2.65;;
18732;SDS011;9495;51.210;2.934;2023-01-01T06:14:02;11.73;;;2.60;;
18732;SDS011;9495;51.210;2.934;2023-01-01T06:16:30;14.90;;;2.40;;
18732;SDS011;9495;51.210;2.934;2023-01-01T06:18:59;12.52;;;2.60;;
18732;SDS011;9495;51.210;2.934;2023-01-01T06:21:28;17.05;;;3.17;;
18732;SDS011;9495;51.210;2.934;2023-01-01T06:23:56;16.83;;;2.65;;
18732;SDS011;9495;51.210;2.934;2023-01-01T06:26:26;12.52;;;2.55;;
18732;SDS011;9495;51.210;2.934;2023-01-01T06:28:56;22.40;;;2.90;;
18732;SDS011;9495;51.210;2.934;2023-01-01T06:31:26;15.43;;;2.83;;
18732;SDS011;9495;51.210;2.934;2023-01-01T06:34:00;12.38;;;2.47;;
18732;SDS011;9495;51.210;2.934;2023-01-01T06:36:29;18.25;;;3.25;;
18732;SDS011;9495;51.210;2.934;2023-01-01T06:38:57;15.23;;;2.70;;
18732;SDS011;9495;51.210;2.934;2023-01-01T06:41:27;13.20;;;2.38;;
18732;SDS011;9495;51.210;2.934;2023-01-01T06:43:56;17.73;;;3.25;;
18732;SDS011;9495;51.210;2.934;2023-01-01T06:46:29;15.70;;;2.95;;
18732;SDS011;9495;51.210;2.934;2023-01-01T06:48:59;12.63;;;2.42;;
18732;SDS011;9495;51.210;2.934;2023-01-01T06:51:30;15.43;;;2.65;;
18732;SDS011;9495;51.210;2.934;2023-01-01T06:54:00;20.30;;;3.13;;
18732;SDS011;9495;51.210;2.934;2023-01-01T06:56:29;11.70;;;2.40;;
18732;SDS011;9495;51.210;2.934;2023-01-01T06:58:58;13.38;;;2.80;;
18732;SDS011;9495;51.210;2.934;2023-01-01T07:01:27;11.55;;;2.80;;
18732;SDS011;9495;51.210;2.934;2023-01-01T07:03:58;13.70;;;2.75;;
18732;SDS011;9495;51.210;2.934;2023-01-01T07:06:28;15.25;;;3.05;;
18732;SDS011;9495;51.210;2.934;2023-01-01T07:08:58;13.03;;;2.60;;
18732;SDS011;9495;51.210;2.934;2023-01-01T07:11:27;14.85;;;2.67;;
18732;SDS011;9495;51.210;2.934;2023-01-01T07:13:56;17.90;;;2.78;;
18732;SDS011;9495;51.210;2.934;2023-01-01T07:16:24;18.85;;;3.08;;
18732;SDS011;9495;51.210;2.934;2023-01-01T07:18:54;10.80;;;2.45;;
18732;SDS011;9495;51.210;2.934;2023-01-01T07:21:24;18.17;;;3.53;;
18732;SDS011;9495;51.210;2.934;2023-01-01T07:23:57;19.15;;;3.22;;
18732;SDS011;9495;51.210;2.934;2023-01-01T07:26:26;20.23;;;3.07;;
18732;SDS011;9495;51.210;2.934;2023-01-01T07:28:56;14.73;;;2.40;;
18732;SDS011;9495;51.210;2.934;2023-01-01T07:31:32;13.17;;;2.47;;
18732;SDS011;9495;51.210;2.934;2023-01-01T07:34:02;11.48;;;2.42;;
18732;SDS011;9495;51.210;2.934;2023-01-01T07:36:31;11.85;;;2.55;;
18732;SDS011;9495;51.210;2.934;2023-01-01T07:39:00;18.80;;;3.25;;
18732;SDS011;9495;51.210;2.934;2023-01-01T07:41:29;14.60;;;3.08;;
18732;SDS011;9495;51.210;2.934;2023-01-01T07:43:57;18.98;;;3.50;;
18732;SDS011;9495;51.210;2.934;2023-01-01T07:46:26;17.83;;;3.00;;
18732;SDS011;9495;51.210;2.934;2023-01-01T07:48:54;12.52;;;2.63;;
18732;SDS011;9495;51.210;2.934;2023-01-01T07:51:24;14.85;;;2.67;;
18732;SDS011;9495;51.210;2.934;2023-01-01T07:53:52;13.07;;;2.58;;
18732;SDS011;9495;51.210;2.934;2023-01-01T07:56:29;14.63;;;2.67;;
18732;SDS011;9495;51.210;2.934;2023-01-01T07:58:57;15.98;;;3.05;;
18732;SDS011;9495;51.210;2.934;2023-01-01T08:01:26;12.55;;;3.13;;
18732;SDS011;9495;51.210;2.934;2023-01-01T08:03:54;14.68;;;2.80;;
18732;SDS011;9495;51.210;2.934;2023-01-01T08:06:24;14.30;;;2.88;;
18732;SDS011;9495;51.210;2.934;2023-01-01T08:08:52;15.70;;;2.42;;
18732;SDS011;9495;51.210;2.934;2023-01-01T08:11:21;17.80;;;3.45;;
18732;SDS011;9495;51.210;2.934;2023-01-01T08:13:50;17.08;;;2.95;;
18732;SDS011;9495;51.210;2.934;2023-01-01T08:16:19;13.85;;;2.83;;
18732;SDS011;9495;51.210;2.934;2023-01-01T08:18:47;12.90;;;2.13;;
18732;SDS011;9495;51.210;2.934;2023-01-01T08:21:16;10.90;;;2.60;;
18732;SDS011;9495;51.210;2.934;2023-01-01T08:23:45;17.80;;;3.60;;
18732;SDS011;9495;51.210;2.934;2023-01-01T08:26:14;27.08;;;3.22;;
18732;SDS011;9495;51.210;2.934;2023-01-01T08:28:43;14.13;;;3.25;;
18732;SDS011;9495;51.210;2.934;2023-01-01T08:31:18;19.08;;;3.78;;
18732;SDS011;9495;51.210;2.934;2023-01-01T08:33:48;14.38;;;3.35;;
18732;SDS011;9495;51.210;2.934;2023-01-01T08:36:17;13.30;;;2.75;;
18732;SDS011;9495;51.210;2.934;2023-01-01T08:38:47;15.30;;;3.05;;
18732;SDS011;9495;51.210;2.934;2023-01-01T08:41:16;11.25;;;2.28;;
18732;SDS011;9495;51.210;2.934;2023-01-01T08:43:44;17.08;;;3.30;;
18732;SDS011;9495;51.210;2.934;2023-01-01T08:46:13;12.93;;;2.25;;
18732;SDS011;9495;51.210;2.934;2023-01-01T08:48:41;15.88;;;3.13;;
18732;SDS011;9495;51.210;2.934;2023-01-01T08:51:10;16.70;;;3.83;;
18732;SDS011;9495;51.210;2.934;2023-01-01T08:53:38;17.58;;;3.42;;
18732;SDS011;9495;51.210;2.934;2023-01-01T08:56:17;11.27;;;2.60;;
18732;SDS011;9495;51.210;2.934;2023-01-01T08:58:46;14.77;;;3.10;;
18732;SDS011;9495;51.210;2.934;2023-01-01T09:01:15;20.50;;;3.50;;
18732;SDS011;9495;51.210;2.934;2023-01-01T09:03:47;12.00;;;2.90;;
18732;SDS011;9495;51.210;2.934;2023-01-01T09:06:15;11.88;;;2.88;;
18732;SDS011;9495;51.210;2.934;2023-01-01T09:08:43;16.25;;;2.83;;
18732;SDS011;9495;51.210;2.934;2023-01-01T09:11:19;18.52;;;2.95;;
18732;SDS011;9495;51.210;2.934;2023-01-01T09:13:50;14.98;;;2.85;;
18732;SDS011;9495;51.210;2.934;2023-01-01T09:16:19;12.70;;;2.63;;
18732;SDS011;9495;51.210;2.934;2023-01-01T09:18:48;13.30;;;3.33;;
18732;SDS011;9495;51.210;2.934;2023-01-01T09:21:16;18.27;;;3.25;;
18732;SDS011;9495;51.210;2.934;2023-01-01T09:23:45;12.45;;;2.88;;
18732;SDS011;9495;51.210;2.934;2023-01-01T09:26:13;10.40;;;2.50;;
18732;SDS011;9495;51.210;2.934;2023-01-01T09:28:43;9.20;;;2.78;;
18732;SDS011;9495;51.210;2.934;2023-01-01T09:31:11;11.88;;;2.67;;
18732;SDS011;9495;51.210;2.934;2023-01-01T09:33:40;17.20;;;3.60;;
18732;SDS011;9495;51.210;2.934;2023-01-01T09:36:12;15.43;;;2.88;;
18732;SDS011;9495;51.210;2.934;2023-01-01T09:38:42;14.88;;;2.90;;
18732;SDS011;9495;51.210;2.934;2023-01-01T09:41:16;13.88;;;3.00;;
18732;SDS011;9495;51.210;2.934;2023-01-01T09:43:56;12.68;;;2.53;;
18732;SDS011;9495;51.210;2.934;2023-01-01T09:46:30;11.95;;;2.75;;
18732;SDS011;9495;51.210;2.934;2023-01-01T09:49:00;14.20;;;2.97;;
18732;SDS011;9495;51.210;2.934;2023-01-01T09:51:32;13.43;;;2.80;;
18732;SDS011;9495;51.210;2.934;2023-01-01T09:54:15;15.48;;;2.80;;
18732;SDS011;9495;51.210;2.934;2023-01-01T09:56:52;11.13;;;3.05;;
18732;SDS011;9495;51.210;2.934;2023-01-01T09:59:25;12.18;;;2.90;;
18732;SDS011;9495;51.210;2.934;2023-01-01T10:01:55;15.68;;;3.15;;
18732;SDS011;9495;51.210;2.934;2023-01-01T10:04:32;10.52;;;2.47;;
18732;SDS011;9495;51.210;2.934;2023-01-01T10:07:14;12.98;;;3.10;;
18732;SDS011;9495;51.210;2.934;2023-01-01T10:09:49;14.38;;;3.08;;
18732;SDS011;9495;51.210;2.934;2023-01-01T10:12:28;12.98;;;2.65;;
18732;SDS011;9495;51.210;2.934;2023-01-01T10:15:07;14.63;;;3.20;;
18732;SDS011;9495;51.210;2.934;2023-01-01T10:17:43;12.70;;;2.90;;
18732;SDS011;9495;51.210;2.934;2023-01-01T10:20:15;16.50;;;2.80;;
18732;SDS011;9495;51.210;2.934;2023-01-01T10:22:48;18.40;;;3.65;;
18732;SDS011;9495;51.210;2.934;2023-01-01T10:25:21;11.02;;;2.78;;
18732;SDS011;9495;51.210;2.934;2023-01-01T10:27:52;15.18;;;3.50;;
18732;SDS011;9495;51.210;2.934;2023-01-01T10:30:27;14.73;;;3.08;;
18732;SDS011;9495;51.210;2.934;2023-01-01T10:32:56;10.75;;;3.00;;
18732;SDS011;9495;51.210;2.934;2023-01-01T10:35:26;9.18;;;2.30;;
18732;SDS011;9495;51.210;2.934;2023-01-01T10:38:00;11.63;;;2.42;;
18732;SDS011;9495;51.210;2.934;2023-01-01T10:40:30;15.10;;;2.65;;
18732;SDS011;9495;51.210;2.934;2023-01-01T10:43:00;12.15;;;2.35;;
18732;SDS011;9495;51.210;2.934;2023-01-01T10:45:31;11.52;;;2.58;;
18732;SDS011;9495;51.210;2.934;2023-01-01T10:48:14;12.52;;;2.83;;
18732;SDS011;9495;51.210;2.934;2023-01-01T10:50:45;12.48;;;2.85;;
18732;SDS011;9495;51.210;2.934;2023-01-01T10:56:07;14.48;;;3.15;;
18732;SDS011;9495;51.210;2.934;2023-01-01T10:58:38;14.73;;;2.63;;
18732;SDS011;9495;51.210;2.934;2023-01-01T11:01:10;13.75;;;3.20;;
18732;SDS011;9495;51.210;2.934;2023-01-01T11:03:54;8.85;;;2.47;;
18732;SDS011;9495;51.210;2.934;2023-01-01T11:06:24;10.75;;;3.08;;
18732;SDS011;9495;51.210;2.934;2023-01-01T11:08:55;11.43;;;2.47;;
18732;SDS011;9495;51.210;2.934;2023-01-01T11:11:26;11.82;;;2.67;;
18732;SDS011;9495;51.210;2.934;2023-01-01T11:13:56;11.73;;;2.70;;
18732;SDS011;9495;51.210;2.934;2023-01-01T11:16:27;15.73;;;2.92;;
18732;SDS011;9495;51.210;2.934;2023-01-01T11:19:00;15.65;;;2.85;;
18732;SDS011;9495;51.210;2.934;2023-01-01T11:21:30;10.55;;;2.55;;
18732;SDS011;9495;51.210;2.934;2023-01-01T11:24:10;14.95;;;3.17;;
18732;SDS011;9495;51.210;2.934;2023-01-01T11:26:44;10.95;;;2.08;;
18732;SDS011;9495;51.210;2.934;2023-01-01T11:29:22;10.38;;;2.85;;
18732;SDS011;9495;51.210;2.934;2023-01-01T11:31:54;10.30;;;2.88;;
18732;SDS011;9495;51.210;2.934;2023-01-01T11:34:30;14.55;;;2.88;;
18732;SDS011;9495;51.210;2.934;2023-01-01T11:37:25;13.90;;;3.25;;
18732;SDS011;9495;51.210;2.934;2023-01-01T11:39:58;13.38;;;2.60;;
18732;SDS011;9495;51.210;2.934;2023-01-01T11:42:28;13.88;;;3.25;;
18732;SDS011;9495;51.210;2.934;2023-01-01T11:44:59;10.68;;;2.22;;
18732;SDS011;9495;51.210;2.934;2023-01-01T11:47:31;12.40;;;2.88;;
18732;SDS011;9495;51.210;2.934;2023-01-01T11:50:03;13.25;;;2.85;;
18732;SDS011;9495;51.210;2.934;2023-01-01T11:52:45;12.23;;;2.78;;
18732;SDS011;9495;51.210;2.934;2023-01-01T11:55:17;12.02;;;2.92;;
18732;SDS011;9495;51.210;2.934;2023-01-01T11:57:54;10.77;;;2.28;;
18732;SDS011;9495;51.210;2.934;2023-01-01T12:00:28;11.25;;;2.50;;
18732;SDS011;9495;51.210;2.934;2023-01-01T12:03:03;11.38;;;2.97;;
18732;SDS011;9495;51.210;2.934;2023-01-01T12:05:42;12.65;;;3.15;;
18732;SDS011;9495;51.210;2.934;2023-01-01T12:08:18;10.48;;;2.65;;
18732;SDS011;9495;51.210;2.934;2023-01-01T12:10:55;13.80;;;2.97;;
18732;SDS011;9495;51.210;2.934;2023-01-01T12:13:28;10.55;;;2.33;;
18732;SDS011;9495;51.210;2.934;2023-01-01T12:16:06;12.32;;;2.20;;
18732;SDS011;9495;51.210;2.934;2023-01-01T12:18:41;14.98;;;3.03;;
18732;SDS011;9495;51.210;2.934;2023-01-01T12:21:14;14.73;;;3.05;;
18732;SDS011;9495;51.210;2.934;2023-01-01T12:23:49;11.68;;;2.45;;
18732;SDS011;9495;51.210;2.934;2023-01-01T12:26:19;10.02;;;2.65;;
18732;SDS011;9495;51.210;2.934;2023-01-01T12:28:59;13.60;;;2.72;;
18732;SDS011;9495;51.210;2.934;2023-01-01T12:31:39;14.27;;;2.97;;
18732;SDS011;9495;51.210;2.934;2023-01-01T12:34:16;13.88;;;2.65;;
18732;SDS011;9495;51.210;2.934;2023-01-01T12:36:52;14.05;;;3.17;;
18732;SDS011;9495;51.210;2.934;2023-01-01T12:42:51;12.98;;;2.80;;
18732;SDS011;9495;51.210;2.934;2023-01-01T12:45:39;13.52;;;2.95;;
18732;SDS011;9495;51.210;2.934;2023-01-01T12:48:25;14.07;;;2.92;;
18732;SDS011;9495;51.210;2.934;2023-01-01T12:51:16;17.35;;;2.90;;
18732;SDS011;9495;51.210;2.934;2023-01-01T12:53:54;16.33;;;3.05;;
18732;SDS011;9495;51.210;2.934;2023-01-01T12:56:34;20.15;;;3.15;;
18732;SDS011;9495;51.210;2.934;2023-01-01T12:59:09;15.43;;;2.67;;
18732;SDS011;9495;51.210;2.934;2023-01-01T13:01:40;15.85;;;2.75;;
18732;SDS011;9495;51.210;2.934;2023-01-01T13:04:09;11.00;;;2.90;;
18732;SDS011;9495;51.210;2.934;2023-01-01T13:06:43;14.82;;;3.25;;
18732;SDS011;9495;51.210;2.934;2023-01-01T13:09:16;14.07;;;3.30;;
18732;SDS011;9495;51.210;2.934;2023-01-01T13:11:47;12.65;;;3.15;;
18732;SDS011;9495;51.210;2.934;2023-01-01T13:14:19;15.02;;;3.08;;
18732;SDS011;9495;51.210;2.934;2023-01-01T13:16:48;14.38;;;3.67;;
18732;SDS011;9495;51.210;2.934;2023-01-01T13:19:22;11.43;;;2.80;;
18732;SDS011;9495;51.210;2.934;2023-01-01T13:21:54;13.55;;;3.33;;
18732;SDS011;9495;51.210;2.934;2023-01-01T13:24:23;9.77;;;2.72;;
18732;SDS011;9495;51.210;2.934;2023-01-01T13:26:53;18.75;;;3.20;;
18732;SDS011;9495;51.210;2.934;2023-01-01T13:32:13;9.70;;;2.10;;
18732;SDS011;9495;51.210;2.934;2023-01-01T13:37:44;13.80;;;3.90;;
18732;SDS011;9495;51.210;2.934;2023-01-01T13:40:29;13.60;;;3.22;;
18732;SDS011;9495;51.210;2.934;2023-01-01T13:43:03;15.38;;;3.25;;
18732;SDS011;9495;51.210;2.934;2023-01-01T13:45:33;12.68;;;2.95;;
18732;SDS011;9495;51.210;2.934;2023-01-01T13:58:02;12.43;;;2.83;;
18732;SDS011;9495;51.210;2.934;2023-01-01T14:01:03;19.35;;;4.00;;
18732;SDS011;9495;51.210;2.934;2023-01-01T14:03:50;14.18;;;2.63;;
18732;SDS011;9495;51.210;2.934;2023-01-01T14:06:22;17.77;;;2.83;;
18732;SDS011;9495;51.210;2.934;2023-01-01T14:08:59;14.52;;;3.28;;
18732;SDS011;9495;51.210;2.934;2023-01-01T14:11:31;16.23;;;3.20;;
18732;SDS011;9495;51.210;2.934;2023-01-01T14:13:59;18.33;;;3.67;;
18732;SDS011;9495;51.210;2.934;2023-01-01T14:16:28;13.82;;;3.47;;
18732;SDS011;9495;51.210;2.934;2023-01-01T14:18:57;14.23;;;3.17;;
18732;SDS011;9495;51.210;2.934;2023-01-01T14:21:29;17.17;;;3.33;;
18732;SDS011;9495;51.210;2.934;2023-01-01T14:24:00;14.15;;;3.28;;
18732;SDS011;9495;51.210;2.934;2023-01-01T14:26:33;16.17;;;3.33;;
18732;SDS011;9495;51.210;2.934;2023-01-01T14:29:05;19.88;;;3.80;;
18732;SDS011;9495;51.210;2.934;2023-01-01T14:31:35;14.90;;;3.75;;
18732;SDS011;9495;51.210;2.934;2023-01-01T14:34:14;16.13;;;3.55;;
18732;SDS011;9495;51.210;2.934;2023-01-01T14:36:49;17.70;;;4.57;;
18732;SDS011;9495;51.210;2.934;2023-01-01T14:39:22;16.58;;;3.83;;
18732;SDS011;9495;51.210;2.934;2023-01-01T14:41:56;19.10;;;3.55;;
18732;SDS011;9495;51.210;2.934;2023-01-01T14:44:27;15.02;;;3.53;;
18732;SDS011;9495;51.210;2.934;2023-01-01T14:47:01;17.27;;;4.30;;
18732;SDS011;9495;51.210;2.934;2023-01-01T14:49:32;17.70;;;3.97;;
18732;SDS011;9495;51.210;2.934;2023-01-01T14:52:05;21.95;;;3.78;;
18732;SDS011;9495;51.210;2.934;2023-01-01T14:54:36;18.38;;;3.80;;
18732;SDS011;9495;51.210;2.934;2023-01-01T14:57:10;16.27;;;3.40;;
18732;SDS011;9495;51.210;2.934;2023-01-01T14:59:44;16.70;;;3.10;;
18732;SDS011;9495;51.210;2.934;2023-01-01T15:02:14;16.63;;;4.05;;
18732;SDS011;9495;51.210;2.934;2023-01-01T15:04:44;17.88;;;4.13;;
18732;SDS011;9495;51.210;2.934;2023-01-01T15:07:17;19.23;;;3.53;;
18732;SDS011;9495;51.210;2.934;2023-01-01T15:09:48;14.40;;;3.88;;
18732;SDS011;9495;51.210;2.934;2023-01-01T15:12:18;19.02;;;4.15;;
18732;SDS011;9495;51.210;2.934;2023-01-01T15:14:46;18.48;;;4.35;;
18732;SDS011;9495;51.210;2.934;2023-01-01T15:17:16;22.85;;;3.60;;
18732;SDS011;9495;51.210;2.934;2023-01-01T15:19:58;13.85;;;2.97;;
18732;SDS011;9495;51.210;2.934;2023-01-01T15:22:28;16.77;;;3.85;;
18732;SDS011;9495;51.210;2.934;2023-01-01T15:24:58;16.33;;;3.92;;
18732;SDS011;9495;51.210;2.934;2023-01-01T15:27:29;17.92;;;3.88;;
18732;SDS011;9495;51.210;2.934;2023-01-01T15:29:59;14.80;;;3.40;;
18732;SDS011;9495;51.210;2.934;2023-01-01T15:32:35;16.98;;;3.65;;
18732;SDS011;9495;51.210;2.934;2023-01-01T15:35:05;19.27;;;2.80;;
18732;SDS011;9495;51.210;2.934;2023-01-01T15:37:46;19.58;;;3.42;;
18732;SDS011;9495;51.210;2.934;2023-01-01T15:40:29;19.95;;;5.07;;
18732;SDS011;9495;51.210;2.934;2023-01-01T15:45:53;14.00;;;3.40;;